Time;durP1;ratioP1;P1;durP2;ratioP2;P2;SDS_P1;SDS_P2;PMS_P1;PMS_P2;Temp;Humidity;BMP_temperature;BMP_pressure;BME280_temperature;BME280_humidity;BME280_pressure;Samples;Min_cycle;Max_cycle;Signal;HPM_P1;HPM_P2
2022/03/18 00:00:48;;;;;;;11.40;6.60;;;8.70;99.90;;;;;;5087875;28;20200;-55
2022/03/18 00:03:32;;;;;;;17.73;10.27;;;8.70;99.90;;;;;;5091504;28;20215;-54
2022/03/18 00:06:17;;;;;;;14.43;6.73;;;8.70;99.90;;;;;;5088485;28;20196;-59
2022/03/18 00:09:01;;;;;;;10.50;6.00;;;8.70;99.90;;;;;;5088719;28;20192;-56
2022/03/18 00:11:45;;;;;;;9.60;5.77;;;8.60;99.90;;;;;;5091218;28;20195;-52
2022/03/18 00:14:29;;;;;;;9.10;5.63;;;8.60;99.90;;;;;;5086801;28;20200;-52
2022/03/18 00:17:14;;;;;;;10.30;6.00;;;8.50;99.90;;;;;;5089924;28;20216;-55
2022/03/18 00:19:58;;;;;;;8.73;5.93;;;8.50;99.90;;;;;;5090613;28;20235;-60
2022/03/18 00:22:43;;;;;;;9.60;5.47;;;8.50;99.90;;;;;;5086654;28;20184;-50
2022/03/18 00:25:29;;;;;;;12.67;5.97;;;8.50;99.90;;;;;;5090702;28;20192;-57
2022/03/18 00:28:13;;;;;;;8.27;5.33;;;8.50;99.90;;;;;;5089455;28;20280;-60
2022/03/18 00:30:58;;;;;;;9.13;5.17;;;8.40;99.90;;;;;;5087538;28;20192;-56
2022/03/18 00:33:43;;;;;;;10.43;5.43;;;8.40;99.90;;;;;;5090680;28;20196;-56
2022/03/18 00:36:27;;;;;;;11.27;5.50;;;8.40;99.90;;;;;;5087031;28;20227;-59
2022/03/18 00:39:12;;;;;;;11.77;6.60;;;8.40;99.90;;;;;;5082132;28;20225;-57
2022/03/18 00:41:56;;;;;;;12.20;5.90;;;8.40;99.90;;;;;;5084534;28;20228;-55
2022/03/18 00:44:41;;;;;;;9.87;6.23;;;8.40;99.90;;;;;;5080040;28;20242;-53
2022/03/18 00:53:32;;;;;;;8.93;5.33;;;8.30;99.90;;;;;;5082501;28;20239;-60
2022/03/18 00:56:16;;;;;;;10.53;5.00;;;8.30;99.90;;;;;;5083517;28;20228;-57
2022/03/18 00:59:00;;;;;;;10.70;5.90;;;8.30;99.90;;;;;;5084048;28;20231;-53
2022/03/18 01:01:45;;;;;;;10.37;6.53;;;8.20;99.90;;;;;;5079859;28;20238;-50
2022/03/18 01:04:29;;;;;;;8.60;5.60;;;8.20;99.90;;;;;;5083925;28;20242;-51
2022/03/18 01:07:14;;;;;;;8.13;5.40;;;8.20;99.90;;;;;;5083079;28;20197;-60
2022/03/18 01:09:58;;;;;;;8.70;5.60;;;8.20;99.90;;;;;;5080291;28;20273;-55
2022/03/18 01:12:43;;;;;;;8.00;5.13;;;8.10;99.90;;;;;;5084205;28;20297;-51
2022/03/18 01:15:28;;;;;;;10.40;5.90;;;8.20;99.90;;;;;;5082144;28;20254;-60
2022/03/18 01:18:12;;;;;;;8.13;5.40;;;8.10;99.90;;;;;;5081147;28;20221;-51
2022/03/18 01:20:56;;;;;;;9.10;4.63;;;8.10;99.90;;;;;;5084840;28;20196;-53
2022/03/18 01:23:40;;;;;;;7.47;4.90;;;8.10;99.90;;;;;;5080467;28;20265;-51
2022/03/18 01:26:25;;;;;;;11.90;6.13;;;8.10;99.90;;;;;;5081997;28;20251;-56
2022/03/18 01:29:10;;;;;;;12.07;5.77;;;8.10;99.90;;;;;;5084543;28;20250;-50
2022/03/18 01:31:55;;;;;;;10.37;5.30;;;8.10;99.90;;;;;;5079775;28;20197;-57
2022/03/18 01:34:39;;;;;;;9.23;5.37;;;8.10;99.90;;;;;;5083826;28;20189;-53
2022/03/18 01:37:23;;;;;;;10.27;6.10;;;8.10;99.90;;;;;;5082711;28;20228;-52
2022/03/18 01:40:09;;;;;;;7.43;5.13;;;8.00;99.90;;;;;;5079614;28;20221;-53
2022/03/18 01:42:53;;;;;;;7.57;5.70;;;8.10;99.90;;;;;;5083883;28;20225;-56
2022/03/18 01:45:38;;;;;;;9.97;5.17;;;8.10;99.90;;;;;;5080922;28;20191;-53
2022/03/18 01:48:23;;;;;;;7.50;5.23;;;8.10;99.90;;;;;;5083343;28;20262;-53
2022/03/18 01:51:08;;;;;;;10.00;5.77;;;8.10;99.90;;;;;;5088238;28;20277;-57
2022/03/18 01:54:44;;;;;;;9.70;5.67;;;8.00;99.90;;;;;;5084864;28;20216;-56
2022/03/18 01:56:58;;;;;;;10.50;5.77;;;8.00;99.90;;;;;;5086782;28;20221;-54
2022/03/18 01:59:43;;;;;;;12.97;5.33;;;8.00;99.90;;;;;;5088907;28;20247;-59
2022/03/18 02:02:27;;;;;;;12.07;6.20;;;8.00;99.90;;;;;;5083711;28;20196;-56
2022/03/18 02:05:11;;;;;;;10.90;5.13;;;8.00;99.90;;;;;;5086551;28;20193;-55
2022/03/18 02:07:56;;;;;;;10.50;6.13;;;8.00;99.90;;;;;;5087683;28;20201;-57
2022/03/18 02:10:41;;;;;;;9.90;6.17;;;7.90;99.90;;;;;;5083486;28;20192;-56
2022/03/18 02:13:26;;;;;;;11.13;6.80;;;7.90;99.90;;;;;;5087459;28;20216;-55
2022/03/18 02:16:10;;;;;;;10.83;6.47;;;7.80;99.90;;;;;;5085816;28;20304;-54
2022/03/18 02:18:55;;;;;;;10.33;6.30;;;7.80;99.90;;;;;;5083800;28;20196;-56
2022/03/18 02:21:40;;;;;;;8.77;6.80;;;7.70;99.90;;;;;;5087238;28;20220;-53
2022/03/18 02:24:24;;;;;;;7.80;5.57;;;7.70;99.90;;;;;;5084265;28;20196;-56
2022/03/18 02:27:09;;;;;;;8.27;5.93;;;7.70;99.90;;;;;;5084885;28;20208;-58
2022/03/18 02:29:54;;;;;;;10.83;5.17;;;7.60;99.90;;;;;;5087878;28;20205;-57
2022/03/18 02:32:38;;;;;;;9.63;6.27;;;7.60;99.90;;;;;;5082583;28;20192;-58
2022/03/18 02:35:23;;;;;;;9.47;5.13;;;7.60;99.90;;;;;;5086046;28;20352;-47
2022/03/18 02:38:07;;;;;;;11.10;6.10;;;7.60;99.90;;;;;;5086647;28;20267;-49
2022/03/18 02:40:51;;;;;;;14.17;5.73;;;7.50;99.90;;;;;;5082943;28;20255;-53
2022/03/18 02:43:36;;;;;;;13.97;6.97;;;7.60;99.90;;;;;;5086766;28;20208;-52
2022/03/18 02:46:21;;;;;;;8.60;5.80;;;7.50;99.90;;;;;;5084777;28;20270;-58
2022/03/18 02:49:06;;;;;;;10.17;5.50;;;7.50;99.90;;;;;;5083507;28;20303;-53
2022/03/18 02:51:51;;;;;;;12.93;6.60;;;7.50;99.90;;;;;;5087234;28;20250;-53
2022/03/18 02:54:35;;;;;;;14.50;7.07;;;7.50;99.90;;;;;;5083784;28;20200;-61
2022/03/18 02:57:20;;;;;;;9.43;6.10;;;7.60;99.90;;;;;;5084821;28;20224;-58
2022/03/18 03:00:06;;;;;;;11.97;7.23;;;7.50;99.90;;;;;;5087563;28;20192;-54
2022/03/18 03:02:51;;;;;;;13.40;7.77;;;7.50;99.90;;;;;;5082940;28;20204;-57
2022/03/18 03:08:39;;;;;;;13.27;7.90;;;7.50;99.90;;;;;;5087699;28;20292;-58
2022/03/18 03:11:24;;;;;;;14.13;8.07;;;7.50;99.90;;;;;;5081805;28;20289;-59
2022/03/18 03:14:08;;;;;;;14.77;8.60;;;7.50;99.90;;;;;;5085671;28;20394;-53
2022/03/18 03:16:53;;;;;;;14.87;7.70;;;7.40;99.90;;;;;;5085308;28;20217;-57
2022/03/18 03:19:38;;;;;;;15.87;7.43;;;7.40;99.90;;;;;;5082000;28;20246;-53
2022/03/18 03:22:22;;;;;;;11.03;6.73;;;7.40;99.90;;;;;;5086452;28;20193;-55
2022/03/18 03:25:06;;;;;;;16.73;7.70;;;7.40;99.90;;;;;;5083620;28;20220;-53
2022/03/18 03:27:52;;;;;;;12.20;7.50;;;7.40;99.90;;;;;;5083060;28;20207;-51
2022/03/18 03:30:37;;;;;;;11.60;6.50;;;7.30;99.90;;;;;;5086486;28;20193;-54
2022/03/18 03:33:21;;;;;;;16.17;8.30;;;7.30;99.90;;;;;;5082144;28;20246;-57
2022/03/18 03:36:07;;;;;;;10.40;6.60;;;7.20;99.90;;;;;;5083769;28;20212;-53
2022/03/18 03:38:52;;;;;;;14.37;7.57;;;7.20;99.90;;;;;;5089814;28;20299;-58
2022/03/18 03:41:36;;;;;;;10.50;6.93;;;7.20;99.90;;;;;;5086781;28;20197;-54
2022/03/18 03:44:20;;;;;;;16.70;9.87;;;7.20;99.90;;;;;;5091312;28;20199;-56
2022/03/18 03:47:05;;;;;;;16.27;8.90;;;7.20;99.90;;;;;;5090750;28;20241;-59
2022/03/18 03:49:50;;;;;;;13.17;7.20;;;7.20;99.90;;;;;;5086698;28;20184;-56
2022/03/18 03:52:35;;;;;;;13.27;8.03;;;7.20;99.90;;;;;;5091382;28;20195;-52
2022/03/18 03:55:19;;;;;;;11.90;7.10;;;7.20;99.90;;;;;;5089001;28;20270;-59
2022/03/18 03:58:08;;;;;;;12.37;8.07;;;7.20;99.90;;;;;;5088301;28;20308;-58
2022/03/18 04:00:52;;;;;;;16.97;9.47;;;7.20;99.90;;;;;;5092065;28;20203;-57
2022/03/18 04:03:36;;;;;;;17.93;7.63;;;7.20;99.90;;;;;;5088103;28;20203;-53
2022/03/18 04:06:22;;;;;;;11.23;6.97;;;7.20;99.90;;;;;;5089100;28;20246;-57
2022/03/18 04:09:06;;;;;;;11.73;6.50;;;7.10;99.90;;;;;;5091366;28;20200;-55
2022/03/18 04:11:50;;;;;;;17.77;9.33;;;7.10;99.90;;;;;;5086104;28;20254;-55
2022/03/18 04:14:35;;;;;;;16.20;9.13;;;7.00;99.90;;;;;;5090734;28;20268;-58
2022/03/18 04:17:19;;;;;;;17.87;8.37;;;6.90;99.90;;;;;;5089891;28;20233;-51
2022/03/18 04:20:05;;;;;;;16.20;7.57;;;6.90;99.90;;;;;;5087525;28;20262;-53
2022/03/18 04:22:50;;;;;;;10.63;6.50;;;6.90;99.90;;;;;;5091215;28;20246;-55
2022/03/18 04:25:35;;;;;;;13.13;7.10;;;6.90;99.90;;;;;;5088623;28;20218;-55
2022/03/18 04:28:19;;;;;;;12.80;6.40;;;6.70;99.90;;;;;;5087812;28;20207;-53
2022/03/18 04:31:03;;;;;;;12.33;6.53;;;6.70;99.90;;;;;;5091285;28;20192;-56
2022/03/18 04:33:47;;;;;;;14.77;7.17;;;6.70;99.90;;;;;;5087514;28;20266;-57
2022/03/18 04:36:32;;;;;;;13.27;7.20;;;6.60;99.90;;;;;;5088717;28;20227;-55
2022/03/18 04:39:16;;;;;;;10.17;6.00;;;6.50;99.90;;;;;;5090445;28;20278;-56
2022/03/18 04:42:00;;;;;;;11.40;7.07;;;6.50;99.90;;;;;;5086114;28;20271;-54
2022/03/18 04:44:45;;;;;;;18.23;7.23;;;6.40;99.90;;;;;;5090544;28;20390;-50
2022/03/18 04:47:30;;;;;;;12.00;6.50;;;6.40;99.90;;;;;;5090176;28;20313;-50
2022/03/18 04:50:14;;;;;;;10.07;5.87;;;6.40;99.90;;;;;;5086212;28;20276;-51
2022/03/18 04:53:01;;;;;;;9.33;5.13;;;6.40;99.90;;;;;;5090905;28;20249;-50
2022/03/18 04:55:45;;;;;;;8.37;4.77;;;6.30;99.90;;;;;;5088704;28;20211;-58
2022/03/18 04:58:29;;;;;;;8.07;5.63;;;6.30;99.90;;;;;;5087438;28;20254;-51
2022/03/18 05:01:14;;;;;;;11.23;5.23;;;6.30;99.90;;;;;;5080376;28;20185;-53
2022/03/18 05:03:59;;;;;;;13.07;6.50;;;6.20;99.90;;;;;;5068879;28;20192;-60
2022/03/18 05:06:43;;;;;;;9.90;5.83;;;6.20;99.90;;;;;;5077066;28;20191;-58
2022/03/18 05:09:27;;;;;;;9.97;5.27;;;6.20;99.90;;;;;;5079383;28;20223;-59
2022/03/18 05:12:14;;;;;;;9.87;5.83;;;6.20;99.90;;;;;;5073156;28;20243;-59
2022/03/18 05:14:59;;;;;;;33.27;17.93;;;6.20;99.90;;;;;;5074592;28;20200;-56
2022/03/18 05:17:50;;;;;;;18.03;11.13;;;6.20;99.90;;;;;;5072486;28;20377;-55
2022/03/18 05:20:34;;;;;;;9.00;5.30;;;6.30;99.90;;;;;;5061892;28;20204;-48
2022/03/18 05:23:19;;;;;;;8.90;4.97;;;6.30;99.90;;;;;;5067685;28;20235;-50
2022/03/18 05:26:03;;;;;;;11.70;5.83;;;6.40;99.90;;;;;;5068068;28;20258;-52
2022/03/18 05:28:47;;;;;;;10.80;6.20;;;6.40;99.90;;;;;;5067227;28;20256;-48
2022/03/18 05:31:32;;;;;;;10.33;6.27;;;6.50;99.90;;;;;;5068033;28;20184;-48
2022/03/18 05:34:16;;;;;;;11.17;6.17;;;6.60;99.90;;;;;;5064681;28;20253;-55
2022/03/18 05:37:01;;;;;;;7.43;5.37;;;6.50;99.90;;;;;;5066637;28;20247;-54
2022/03/18 05:39:45;;;;;;;8.93;5.30;;;6.50;99.90;;;;;;5069161;28;20244;-55
2022/03/18 05:42:29;;;;;;;8.60;5.00;;;6.40;99.90;;;;;;5062338;28;20297;-50
2022/03/18 05:45:17;;;;;;;7.00;4.60;;;6.30;99.90;;;;;;5066871;28;20192;-53
2022/03/18 05:48:03;;;;;;;6.63;3.83;;;6.30;99.90;;;;;;5065560;28;20207;-57
2022/03/18 05:50:47;;;;;;;11.03;4.70;;;6.30;99.90;;;;;;5065587;28;20239;-54
2022/03/18 05:53:32;;;;;;;10.17;5.60;;;6.20;99.90;;;;;;5067154;28;20220;-52
2022/03/18 05:59:20;;;;;;;9.03;5.20;;;6.30;99.90;;;;;;5077556;28;20197;-58
2022/03/18 06:02:06;;;;;;;8.70;5.17;;;6.30;99.90;;;;;;5069512;28;20184;-54
2022/03/18 06:04:51;;;;;;;9.90;5.43;;;6.30;99.90;;;;;;5064378;28;20189;-57
2022/03/18 06:07:38;;;;;;;8.13;5.10;;;6.30;99.90;;;;;;5064606;28;20385;-55
2022/03/18 06:13:25;;;;;;;8.27;5.53;;;6.40;99.90;;;;;;5081000;28;20219;-55
2022/03/18 06:16:10;;;;;;;9.77;5.33;;;6.40;99.90;;;;;;5063628;28;20263;-57
2022/03/18 06:18:54;;;;;;;7.77;4.67;;;6.50;99.90;;;;;;5067357;28;20196;-44
2022/03/18 06:21:41;;;;;;;8.77;4.97;;;6.50;99.90;;;;;;5060105;28;20323;-53
2022/03/18 06:24:26;;;;;;;9.97;5.60;;;6.50;99.90;;;;;;5065522;28;20193;-57
2022/03/18 06:27:11;;;;;;;7.00;5.20;;;6.60;99.90;;;;;;5066837;28;20185;-55
2022/03/18 06:29:55;;;;;;;8.37;5.60;;;6.60;99.90;;;;;;5061064;28;20208;-50
2022/03/18 06:32:39;;;;;;;11.97;5.57;;;6.80;99.90;;;;;;5064413;28;20250;-64
2022/03/18 06:35:23;;;;;;;10.07;5.90;;;6.80;99.90;;;;;;5068386;28;20204;-50
2022/03/18 06:38:08;;;;;;;9.37;5.90;;;6.80;99.90;;;;;;5066175;28;20288;-45
2022/03/18 06:40:53;;;;;;;13.00;6.47;;;6.80;99.90;;;;;;5066623;28;20225;-56
2022/03/18 06:43:37;;;;;;;10.77;6.03;;;6.90;99.90;;;;;;5067500;28;20200;-58
2022/03/18 06:46:22;;;;;;;9.77;6.17;;;7.00;99.90;;;;;;5067661;28;20282;-61
2022/03/18 06:49:07;;;;;;;15.47;7.43;;;7.00;99.90;;;;;;5068433;28;20209;-53
2022/03/18 06:51:51;;;;;;;12.07;6.30;;;7.20;99.90;;;;;;5063553;28;20220;-55
2022/03/18 06:54:36;;;;;;;10.27;5.50;;;7.20;99.90;;;;;;5067178;28;20184;-49
2022/03/18 06:57:21;;;;;;;13.63;6.17;;;7.30;99.90;;;;;;5069199;28;20228;-63
2022/03/18 07:00:06;;;;;;;13.93;7.53;;;7.30;99.90;;;;;;5059273;28;20209;-44
2022/03/18 07:02:50;;;;;;;13.93;6.87;;;7.50;99.90;;;;;;5070006;28;20189;-46
2022/03/18 07:05:34;;;;;;;16.70;7.60;;;7.60;99.90;;;;;;5069516;28;20196;-62
2022/03/18 07:08:18;;;;;;;20.07;8.57;;;7.60;99.90;;;;;;5062808;28;20204;-62
2022/03/18 07:11:03;;;;;;;12.10;7.30;;;7.70;99.90;;;;;;5066664;28;20228;-58
2022/03/18 07:13:48;;;;;;;17.37;9.00;;;7.80;99.90;;;;;;5067465;28;20188;-60
2022/03/18 07:19:38;;;;;;;18.07;9.50;;;8.00;99.90;;;;;;5078664;28;20265;-56
2022/03/18 07:22:25;;;;;;;18.77;8.47;;;7.90;99.90;;;;;;5067337;28;20196;-56
2022/03/18 07:25:10;;;;;;;16.03;9.27;;;8.00;99.90;;;;;;5066550;28;20558;-61
2022/03/18 07:27:54;;;;;;;16.47;8.30;;;8.10;99.90;;;;;;5070174;28;20247;-61
2022/03/18 07:30:42;;;;;;;16.03;8.97;;;8.20;99.90;;;;;;5063336;28;20622;-62
2022/03/18 07:33:26;;;;;;;12.47;7.53;;;8.10;99.90;;;;;;5068557;28;20193;-61
2022/03/18 07:36:11;;;;;;;16.37;8.77;;;8.20;99.90;;;;;;5067133;28;20227;-56
2022/03/18 07:38:55;;;;;;;16.13;9.40;;;8.30;99.90;;;;;;5065339;28;20229;-47
2022/03/18 07:41:40;;;;;;;18.33;9.73;;;8.40;99.90;;;;;;5067900;28;20278;-57
2022/03/18 07:44:24;;;;;;;18.77;9.77;;;8.50;99.90;;;;;;5067902;28;20205;-56
2022/03/18 07:47:09;;;;;;;20.87;10.23;;;8.50;99.90;;;;;;5064750;28;20269;-57
2022/03/18 07:49:53;;;;;;;18.20;8.90;;;8.60;99.90;;;;;;5065907;28;20196;-49
2022/03/18 07:52:37;;;;;;;18.40;9.80;;;8.80;99.90;;;;;;5065246;28;20189;-60
2022/03/18 07:55:24;;;;;;;20.90;10.70;;;8.80;99.90;;;;;;5065768;28;20184;-61
2022/03/18 07:58:09;;;;;;;17.73;9.33;;;8.80;99.90;;;;;;5067184;28;20224;-64
2022/03/18 08:00:53;;;;;;;22.63;10.70;;;8.80;99.90;;;;;;5060881;28;20234;-63
2022/03/18 08:03:38;;;;;;;27.37;11.20;;;9.00;99.90;;;;;;5066503;28;20193;-47
2022/03/18 08:06:22;;;;;;;23.80;10.37;;;9.10;99.90;;;;;;5067767;28;20282;-64
2022/03/18 08:09:07;;;;;;;15.67;9.33;;;9.00;99.90;;;;;;5064017;28;20216;-57
2022/03/18 08:11:51;;;;;;;21.53;10.00;;;9.10;99.90;;;;;;5066924;28;20205;-52
2022/03/18 08:14:35;;;;;;;22.07;10.10;;;9.10;99.90;;;;;;5066686;28;20188;-51
2022/03/18 08:17:19;;;;;;;16.63;8.73;;;9.00;99.90;;;;;;5064804;28;20678;-54
2022/03/18 08:20:04;;;;;;;20.67;10.90;;;9.00;99.90;;;;;;5069563;28;20211;-57
2022/03/18 08:22:50;;;;;;;21.23;10.53;;;9.20;99.90;;;;;;5065122;28;20277;-57
2022/03/18 08:25:34;;;;;;;18.90;10.17;;;9.20;99.90;;;;;;5067320;28;20197;-56
2022/03/18 08:28:19;;;;;;;20.23;10.53;;;9.40;99.90;;;;;;5069198;28;20251;-56
2022/03/18 08:31:03;;;;;;;21.00;10.57;;;9.60;99.90;;;;;;5066075;28;20265;-49
2022/03/18 08:33:48;;;;;;;18.83;9.67;;;9.60;99.90;;;;;;5070243;28;20185;-63
2022/03/18 08:36:32;;;;;;;22.87;10.90;;;9.80;99.90;;;;;;5070688;28;20275;-65
2022/03/18 08:41:02;;;;;;;24.27;11.27;;;10.00;99.90;;;;;;5145596;27;20615;-62
2022/03/18 08:43:46;;;;;;;17.50;9.07;;;9.90;99.90;;;;;;5145234;27;20194;-63
2022/03/18 08:46:31;;;;;;;26.53;11.83;;;10.00;99.90;;;;;;5142185;27;20183;-52
2022/03/18 08:49:16;;;;;;;25.20;10.90;;;10.10;99.90;;;;;;5145563;27;20222;-55
2022/03/18 08:52:00;;;;;;;21.47;10.93;;;10.30;99.90;;;;;;5144206;27;20214;-52
2022/03/18 08:54:45;;;;;;;19.83;10.83;;;10.20;99.90;;;;;;5142723;27;20190;-48
2022/03/18 08:57:31;;;;;;;21.43;11.73;;;10.60;99.90;;;;;;5145352;27;20226;-48
2022/03/18 09:00:16;;;;;;;21.27;11.03;;;10.70;99.90;;;;;;5137412;27;20487;-49
2022/03/18 09:03:00;;;;;;;17.00;9.20;;;11.00;99.90;;;;;;5142930;27;20232;-45
2022/03/18 09:05:44;;;;;;;18.07;10.23;;;11.00;99.90;;;;;;5142602;27;20232;-47
2022/03/18 09:08:29;;;;;;;20.03;10.23;;;11.00;99.90;;;;;;5139867;27;20245;-43
2022/03/18 09:11:13;;;;;;;18.83;10.43;;;10.90;99.90;;;;;;5143928;27;20202;-43
2022/03/18 09:13:58;;;;;;;24.57;12.03;;;11.10;99.90;;;;;;5143045;27;20194;-53
2022/03/18 09:16:42;;;;;;;18.27;9.83;;;10.90;99.90;;;;;;5120642;28;20210;-52
2022/03/18 09:19:26;;;;;;;21.00;10.63;;;11.20;99.90;;;;;;5123669;28;20239;-58
2022/03/18 09:22:11;;;;;;;15.87;9.40;;;11.10;99.80;;;;;;5122324;28;20187;-63
2022/03/18 09:24:55;;;;;;;19.00;10.40;;;11.40;99.20;;;;;;5129479;27;20202;-61
2022/03/18 09:27:40;;;;;;;17.57;9.80;;;11.70;98.70;;;;;;5144494;27;20202;-60
2022/03/18 09:30:25;;;;;;;20.27;11.23;;;11.60;99.10;;;;;;5141635;27;20221;-61
2022/03/18 09:33:10;;;;;;;16.13;9.23;;;11.90;98.10;;;;;;5143326;27;20191;-55
2022/03/18 09:35:54;;;;;;;16.87;10.33;;;12.30;97.80;;;;;;5173570;27;20195;-57
2022/03/18 09:38:39;;;;;;;18.60;10.40;;;12.60;97.30;;;;;;5141031;27;20216;-61
2022/03/18 09:41:23;;;;;;;21.40;11.50;;;12.70;95.70;;;;;;5144693;27;20233;-62
2022/03/18 09:44:10;;;;;;;20.47;10.33;;;12.40;95.90;;;;;;5141245;27;20199;-58
2022/03/18 09:46:55;;;;;;;13.87;8.70;;;12.20;95.20;;;;;;5120442;27;20316;-45
2022/03/18 09:49:42;;;;;;;15.57;9.50;;;12.20;95.30;;;;;;5124021;27;20250;-63
2022/03/18 09:52:27;;;;;;;17.53;10.07;;;12.60;95.10;;;;;;5108195;28;20196;-64
2022/03/18 09:55:11;;;;;;;16.40;9.13;;;12.50;95.20;;;;;;5117735;27;20202;-58
2022/03/18 09:57:56;;;;;;;15.40;8.63;;;12.60;94.80;;;;;;5159455;27;20190;-47
2022/03/18 10:00:41;;;;;;;15.20;9.23;;;12.70;94.80;;;;;;5127146;27;20227;-65
2022/03/18 10:03:38;;;;;;;15.57;9.27;;;13.00;94.10;;;;;;5126698;27;20192;-49
2022/03/18 10:06:28;;;;;;;18.07;9.30;;;13.00;93.80;;;;;;5124176;27;20191;-59
2022/03/18 10:09:14;;;;;;;17.13;8.97;;;12.80;93.90;;;;;;5124834;27;20207;-63
2022/03/18 10:11:59;;;;;;;14.80;8.27;;;13.00;93.50;;;;;;5128969;27;20192;-52
2022/03/18 10:14:44;;;;;;;15.80;9.73;;;13.30;93.90;;;;;;5122798;27;20218;-47
2022/03/18 10:17:38;;;;;;;17.00;9.73;;;14.10;92.30;;;;;;5113995;27;20198;-54
2022/03/18 10:20:27;;;;;;;16.60;9.47;;;14.20;91.80;;;;;;5112743;27;20302;-63
2022/03/18 10:23:24;;;;;;;18.70;9.73;;;13.80;92.00;;;;;;5128273;27;20196;-50
2022/03/18 10:26:08;;;;;;;17.93;10.27;;;14.70;91.70;;;;;;5106781;27;20238;-59
2022/03/18 10:29:00;;;;;;;17.17;8.93;;;15.40;90.20;;;;;;5109455;28;20277;-52
2022/03/18 10:31:59;;;;;;;14.87;9.50;;;15.60;89.40;;;;;;5119526;27;20187;-52
2022/03/18 10:38:06;;;;;;;17.17;10.23;;;15.00;87.80;;;;;;5085688;28;20215;-47
2022/03/18 10:40:53;;;;;;;17.50;10.70;;;14.90;89.70;;;;;;5124100;27;20239;-50
2022/03/18 10:43:54;;;;;;;15.70;9.63;;;15.40;88.60;;;;;;5125420;27;20281;-47
2022/03/18 10:46:42;;;;;;;16.83;9.70;;;15.30;87.20;;;;;;5111731;27;20178;-46
2022/03/18 10:49:28;;;;;;;17.23;10.20;;;15.60;87.80;;;;;;5126126;27;20237;-53
2022/03/18 10:52:14;;;;;;;18.00;10.87;;;15.70;87.30;;;;;;5125821;27;20195;-47
2022/03/18 10:55:19;;;;;;;16.47;11.27;;;15.90;87.50;;;;;;5128011;27;20212;-53
2022/03/18 10:58:19;;;;;;;37.43;20.07;;;16.20;84.70;;;;;;5126630;27;20184;-53
2022/03/18 11:01:03;;;;;;;29.07;19.30;;;16.60;82.70;;;;;;5120907;27;20197;-59
2022/03/18 11:03:47;;;;;;;18.77;12.93;;;16.70;80.10;;;;;;5125530;27;20192;-49
2022/03/18 11:06:32;;;;;;;23.27;14.87;;;16.90;78.60;;;;;;5125634;27;20218;-43
2022/03/18 11:09:16;;;;;;;18.48;11.50;;;17.20;77.10;;;;;;5121939;27;20187;-48
2022/03/18 11:12:00;;;;;;;13.85;9.82;;;17.30;75.40;;;;;;5124609;27;20180;-51
2022/03/18 11:14:45;;;;;;;20.40;11.67;;;17.10;76.20;;;;;;5125797;27;20191;-64
2022/03/18 11:17:30;;;;;;;14.32;8.57;;;17.30;75.10;;;;;;5123771;27;20210;-56
2022/03/18 11:20:20;;;;;;;13.75;8.13;;;17.10;75.50;;;;;;5127941;27;20265;-58
2022/03/18 11:23:04;;;;;;;12.07;7.60;;;17.30;73.70;;;;;;5125987;27;20219;-64
2022/03/18 11:25:54;;;;;;;9.48;7.65;;;17.70;72.50;;;;;;5125697;27;20191;-60
2022/03/18 11:28:40;;;;;;;13.38;9.02;;;18.10;71.20;;;;;;5127957;27;20196;-53
2022/03/18 11:31:24;;;;;;;11.63;8.45;;;17.60;71.60;;;;;;5126571;27;20187;-56
2022/03/18 11:34:12;;;;;;;13.02;8.20;;;17.30;71.70;;;;;;5126784;27;20225;-60
2022/03/18 11:37:10;;;;;;;13.60;8.07;;;17.20;71.30;;;;;;5128362;27;20198;-57
2022/03/18 11:40:19;;;;;;;14.02;8.73;;;17.50;70.30;;;;;;5124504;27;20344;-56
2022/03/18 11:43:32;;;;;;;19.57;12.27;;;16.40;73.00;;;;;;5125219;27;20219;-50
2022/03/18 11:46:16;;;;;;;13.23;9.13;;;15.90;74.40;;;;;;5127497;27;20195;-56
2022/03/18 11:49:05;;;;;;;18.17;9.53;;;15.90;73.80;;;;;;5126271;27;20237;-62
2022/03/18 11:52:01;;;;;;;17.97;9.80;;;15.80;73.40;;;;;;5125010;27;20195;-49
2022/03/18 11:55:00;;;;;;;15.37;9.47;;;15.50;74.80;;;;;;5128122;27;20188;-54
2022/03/18 11:57:45;;;;;;;25.80;13.27;;;16.10;74.30;;;;;;5126840;27;20192;-47
2022/03/18 12:00:33;;;;;;;33.37;18.30;;;16.20;73.70;;;;;;5125638;27;20187;-44
2022/03/18 12:03:20;;;;;;;32.67;19.23;;;16.10;73.80;;;;;;5128083;27;20192;-44
2022/03/18 12:06:04;;;;;;;29.27;14.63;;;15.80;73.60;;;;;;5125520;27;20290;-51
2022/03/18 12:08:52;;;;;;;14.33;9.57;;;16.10;74.70;;;;;;5125787;27;20194;-64
2022/03/18 12:11:36;;;;;;;13.30;8.70;;;15.90;75.40;;;;;;5127096;27;20203;-47
2022/03/18 12:14:22;;;;;;;13.47;8.73;;;15.60;75.60;;;;;;5123760;27;20204;-51
2022/03/18 12:17:06;;;;;;;11.63;8.73;;;15.10;76.70;;;;;;5126735;27;20195;-46
2022/03/18 12:19:57;;;;;;;13.57;8.47;;;15.10;76.00;;;;;;5127698;27;20203;-51
2022/03/18 12:22:42;;;;;;;14.73;7.90;;;15.30;76.00;;;;;;5123992;27;20354;-61
2022/03/18 12:25:27;;;;;;;15.80;8.63;;;15.00;75.40;;;;;;5126852;27;20199;-57
2022/03/18 12:28:11;;;;;;;16.50;8.67;;;15.00;76.20;;;;;;5126512;27;20195;-48
2022/03/18 12:30:56;;;;;;;13.30;8.77;;;14.90;77.70;;;;;;5124050;27;20226;-47
2022/03/18 12:33:41;;;;;;;15.57;8.47;;;14.80;78.60;;;;;;5127776;27;20198;-56
2022/03/18 12:36:27;;;;;;;15.27;9.50;;;15.10;77.90;;;;;;5125532;27;20204;-63
2022/03/18 12:39:15;;;;;;;18.33;10.23;;;15.10;78.60;;;;;;5124305;28;20269;-61
2022/03/18 12:42:12;;;;;;;18.30;9.93;;;15.60;77.60;;;;;;5127522;28;20191;-53
2022/03/18 12:44:59;;;;;;;16.93;9.67;;;15.80;77.70;;;;;;5124599;28;20312;-49
2022/03/18 12:47:45;;;;;;;16.70;9.97;;;15.60;77.90;;;;;;5124899;28;20198;-60
2022/03/18 12:50:35;;;;;;;24.93;15.23;;;15.30;78.70;;;;;;5127136;28;20214;-63
2022/03/18 12:53:22;;;;;;;16.67;10.27;;;15.20;79.20;;;;;;5124374;28;20245;-61
2022/03/18 12:56:07;;;;;;;18.23;11.60;;;15.40;79.20;;;;;;5126121;28;20210;-57
2022/03/18 12:58:52;;;;;;;17.43;10.43;;;15.20;80.10;;;;;;5126813;28;20302;-52
2022/03/18 13:01:36;;;;;;;16.30;9.70;;;15.40;78.30;;;;;;5124635;28;20191;-54
2022/03/18 13:04:22;;;;;;;15.00;8.70;;;14.90;78.80;;;;;;5127045;28;20709;-51
2022/03/18 13:07:07;;;;;;;15.50;9.53;;;14.90;79.10;;;;;;5126435;28;20190;-65
2022/03/18 13:09:52;;;;;;;14.30;8.67;;;15.10;78.80;;;;;;5123651;28;20269;-61
2022/03/18 13:12:36;;;;;;;16.77;8.87;;;15.40;77.90;;;;;;5127226;28;20206;-53
2022/03/18 13:15:21;;;;;;;14.50;9.13;;;15.60;78.40;;;;;;5125669;28;20231;-50
2022/03/18 13:18:11;;;;;;;17.43;10.00;;;15.60;78.40;;;;;;5124319;28;20218;-53
2022/03/18 13:20:58;;;;;;;19.60;10.50;;;15.50;79.40;;;;;;5126836;28;20191;-48
2022/03/18 13:23:43;;;;;;;16.80;9.70;;;15.40;79.70;;;;;;5124016;28;20219;-61
2022/03/18 13:26:27;;;;;;;17.13;10.50;;;15.60;81.50;;;;;;5126677;27;20271;-58
2022/03/18 13:29:12;;;;;;;17.10;10.93;;;15.80;80.30;;;;;;5126259;27;20231;-64
2022/03/18 13:32:58;;;;;;;22.23;11.00;;;15.90;80.80;;;;;;5110482;27;20199;-58
2022/03/18 13:35:12;;;;;;;19.10;10.53;;;15.60;80.50;;;;;;5139489;27;20257;-63
2022/03/18 13:38:15;;;;;;;18.03;10.97;;;15.70;80.60;;;;;;5130167;27;20187;-58
2022/03/18 13:41:01;;;;;;;18.87;10.17;;;15.10;80.90;;;;;;5126394;27;20257;-60
2022/03/18 13:43:56;;;;;;;18.43;10.33;;;15.20;81.00;;;;;;5128080;27;20194;-56
2022/03/18 13:46:41;;;;;;;20.70;10.07;;;15.60;81.60;;;;;;5128688;27;20199;-50
2022/03/18 13:49:26;;;;;;;20.70;10.77;;;15.60;82.00;;;;;;5124834;27;20239;-60
2022/03/18 13:52:12;;;;;;;18.57;11.20;;;16.20;80.90;;;;;;5128721;27;20208;-49
2022/03/18 13:54:56;;;;;;;19.10;10.43;;;16.10;81.00;;;;;;5135205;27;20195;-49
2022/03/18 13:57:48;;;;;;;18.57;10.90;;;16.90;80.30;;;;;;5114095;27;20236;-55
2022/03/18 14:00:35;;;;;;;15.70;10.07;;;17.20;78.00;;;;;;5133097;27;20207;-58
2022/03/18 14:03:29;;;;;;;17.20;9.03;;;15.90;77.60;;;;;;5128161;27;20209;-65
2022/03/18 14:06:13;;;;;;;15.13;9.03;;;16.30;77.20;;;;;;5121172;27;20175;-49
2022/03/18 14:09:12;;;;;;;19.13;9.83;;;16.20;77.80;;;;;;5128607;27;20214;-48
2022/03/18 14:12:14;;;;;;;18.80;10.53;;;16.60;76.80;;;;;;5137171;27;20258;-63
2022/03/18 14:15:18;;;;;;;16.80;9.60;;;16.30;77.10;;;;;;5122442;27;20199;-49
2022/03/18 14:18:11;;;;;;;16.60;10.53;;;16.10;78.40;;;;;;5139728;27;20195;-53
2022/03/18 14:20:57;;;;;;;17.07;10.07;;;15.30;80.00;;;;;;5137302;27;20269;-46
2022/03/18 14:23:46;;;;;;;15.47;9.37;;;15.50;80.10;;;;;;5133009;27;20252;-63
2022/03/18 14:26:30;;;;;;;16.03;9.67;;;15.90;79.40;;;;;;5135266;27;20191;-53
2022/03/18 14:29:15;;;;;;;16.23;9.03;;;16.40;77.70;;;;;;5139071;27;20254;-57
2022/03/18 14:32:00;;;;;;;18.37;9.90;;;16.50;76.20;;;;;;5132629;27;20188;-55
2022/03/18 14:34:47;;;;;;;14.93;9.37;;;16.20;75.40;;;;;;5136411;27;20272;-59
2022/03/18 14:37:32;;;;;;;17.50;10.00;;;16.20;75.60;;;;;;5158252;27;20195;-63
2022/03/18 14:40:19;;;;;;;15.63;9.70;;;15.60;76.70;;;;;;5134467;27;20254;-58
2022/03/18 14:43:04;;;;;;;16.23;9.67;;;15.60;76.60;;;;;;5140000;27;20226;-58